sensor_id;sensor_type;location;lat;lon;timestamp;temperature;humidity
15359;DHT22;7779;49.596;11.070;2023-04-24T00:00:54;13.30;67.90
15359;DHT22;7779;49.596;11.070;2023-04-24T00:03:23;13.30;68.00
15359;DHT22;7779;49.596;11.070;2023-04-24T00:05:49;13.30;68.00
15359;DHT22;7779;49.596;11.070;2023-04-24T00:08:16;13.20;68.00
15359;DHT22;7779;49.596;11.070;2023-04-24T00:10:42;13.20;68.00
15359;DHT22;7779;49.596;11.070;2023-04-24T00:13:08;13.20;68.10
15359;DHT22;7779;49.596;11.070;2023-04-24T00:15:34;13.20;68.10
15359;DHT22;7779;49.596;11.070;2023-04-24T00:18:00;13.20;68.20
15359;DHT22;7779;49.596;11.070;2023-04-24T00:20:27;13.10;68.10
15359;DHT22;7779;49.596;11.070;2023-04-24T00:22:55;13.10;68.10
15359;DHT22;7779;49.596;11.070;2023-04-24T00:25:21;13.10;68.20
15359;DHT22;7779;49.596;11.070;2023-04-24T00:27:47;13.10;68.20
15359;DHT22;7779;49.596;11.070;2023-04-24T00:30:13;13.10;68.30
15359;DHT22;7779;49.596;11.070;2023-04-24T00:32:38;13.10;68.40
15359;DHT22;7779;49.596;11.070;2023-04-24T00:35:05;13.10;68.40
15359;DHT22;7779;49.596;11.070;2023-04-24T00:37:31;13.00;68.40
15359;DHT22;7779;49.596;11.070;2023-04-24T00:39:57;13.00;70.40
15359;DHT22;7779;49.596;11.070;2023-04-24T00:42:23;13.00;68.50
15359;DHT22;7779;49.596;11.070;2023-04-24T00:44:50;12.90;68.50
15359;DHT22;7779;49.596;11.070;2023-04-24T00:47:16;12.90;68.50
15359;DHT22;7779;49.596;11.070;2023-04-24T00:49:42;12.90;68.60
15359;DHT22;7779;49.596;11.070;2023-04-24T00:52:08;12.90;68.60
15359;DHT22;7779;49.596;11.070;2023-04-24T00:54:35;12.30;68.10
15359;DHT22;7779;49.596;11.070;2023-04-24T00:57:02;12.90;68.60
15359;DHT22;7779;49.596;11.070;2023-04-24T00:59:28;12.80;68.60
15359;DHT22;7779;49.596;11.070;2023-04-24T01:01:55;12.80;68.50
15359;DHT22;7779;49.596;11.070;2023-04-24T01:04:21;12.70;70.50
15359;DHT22;7779;49.596;11.070;2023-04-24T01:06:48;12.70;68.60
15359;DHT22;7779;49.596;11.070;2023-04-24T01:09:16;12.70;68.60
15359;DHT22;7779;49.596;11.070;2023-04-24T01:11:43;12.60;68.60
15359;DHT22;7779;49.596;11.070;2023-04-24T01:14:11;12.60;68.70
15359;DHT22;7779;49.596;11.070;2023-04-24T01:16:37;12.60;68.90
15359;DHT22;7779;49.596;11.070;2023-04-24T01:19:04;12.60;68.90
15359;DHT22;7779;49.596;11.070;2023-04-24T01:21:34;12.50;69.00
15359;DHT22;7779;49.596;11.070;2023-04-24T01:24:03;12.50;69.20
15359;DHT22;7779;49.596;11.070;2023-04-24T01:26:30;12.50;69.30
15359;DHT22;7779;49.596;11.070;2023-04-24T01:28:56;12.50;69.50
15359;DHT22;7779;49.596;11.070;2023-04-24T01:31:22;12.50;69.40
15359;DHT22;7779;49.596;11.070;2023-04-24T01:33:49;12.50;69.50
15359;DHT22;7779;49.596;11.070;2023-04-24T01:36:16;12.50;69.60
15359;DHT22;7779;49.596;11.070;2023-04-24T01:38:43;12.50;69.50
15359;DHT22;7779;49.596;11.070;2023-04-24T01:41:09;12.50;69.70
15359;DHT22;7779;49.596;11.070;2023-04-24T01:43:35;12.50;69.90
15359;DHT22;7779;49.596;11.070;2023-04-24T01:46:01;12.50;70.00
15359;DHT22;7779;49.596;11.070;2023-04-24T01:48:27;12.50;70.00
15359;DHT22;7779;49.596;11.070;2023-04-24T01:50:53;12.50;70.20
15359;DHT22;7779;49.596;11.070;2023-04-24T01:53:19;12.50;70.30
15359;DHT22;7779;49.596;11.070;2023-04-24T01:55:45;12.50;70.30
15359;DHT22;7779;49.596;11.070;2023-04-24T01:58:12;12.50;70.20
15359;DHT22;7779;49.596;11.070;2023-04-24T02:00:38;12.50;70.20
15359;DHT22;7779;49.596;11.070;2023-04-24T02:03:03;12.60;70.40
15359;DHT22;7779;49.596;11.070;2023-04-24T02:05:29;12.60;70.50
15359;DHT22;7779;49.596;11.070;2023-04-24T02:07:55;12.60;71.10
15359;DHT22;7779;49.596;11.070;2023-04-24T02:10:21;12.60;70.50
15359;DHT22;7779;49.596;11.070;2023-04-24T02:12:47;12.60;70.50
15359;DHT22;7779;49.596;11.070;2023-04-24T02:15:12;12.60;70.50
15359;DHT22;7779;49.596;11.070;2023-04-24T02:17:38;12.60;70.50
15359;DHT22;7779;49.596;11.070;2023-04-24T02:20:06;12.60;70.50
15359;DHT22;7779;49.596;11.070;2023-04-24T02:22:32;12.60;70.60
15359;DHT22;7779;49.596;11.070;2023-04-24T02:25:01;12.60;70.50
15359;DHT22;7779;49.596;11.070;2023-04-24T02:27:27;12.60;70.50
15359;DHT22;7779;49.596;11.070;2023-04-24T02:29:52;12.60;70.50
15359;DHT22;7779;49.596;11.070;2023-04-24T02:32:18;12.60;70.50
15359;DHT22;7779;49.596;11.070;2023-04-24T02:34:44;12.60;70.40
15359;DHT22;7779;49.596;11.070;2023-04-24T02:37:11;12.60;70.30
15359;DHT22;7779;49.596;11.070;2023-04-24T02:39:37;12.60;70.30
15359;DHT22;7779;49.596;11.070;2023-04-24T02:42:03;12.60;70.30
15359;DHT22;7779;49.596;11.070;2023-04-24T02:44:29;12.60;70.20
15359;DHT22;7779;49.596;11.070;2023-04-24T02:46:55;12.60;70.20
15359;DHT22;7779;49.596;11.070;2023-04-24T02:49:22;12.60;70.30
15359;DHT22;7779;49.596;11.070;2023-04-24T02:51:48;12.60;70.30
15359;DHT22;7779;49.596;11.070;2023-04-24T02:54:13;12.60;70.40
15359;DHT22;7779;49.596;11.070;2023-04-24T02:56:39;12.60;70.40
15359;DHT22;7779;49.596;11.070;2023-04-24T02:59:06;12.60;70.50
15359;DHT22;7779;49.596;11.070;2023-04-24T03:01:33;12.50;71.90
15359;DHT22;7779;49.596;11.070;2023-04-24T03:03:59;12.50;70.40
15359;DHT22;7779;49.596;11.070;2023-04-24T03:06:25;12.50;70.50
15359;DHT22;7779;49.596;11.070;2023-04-24T03:08:52;12.50;70.60
15359;DHT22;7779;49.596;11.070;2023-04-24T03:11:18;12.50;70.60
15359;DHT22;7779;49.596;11.070;2023-04-24T03:13:44;12.60;70.70
15359;DHT22;7779;49.596;11.070;2023-04-24T03:16:10;12.60;71.30
15359;DHT22;7779;49.596;11.070;2023-04-24T03:18:35;12.60;70.60
15359;DHT22;7779;49.596;11.070;2023-04-24T03:21:03;12.60;70.70
15359;DHT22;7779;49.596;11.070;2023-04-24T03:23:29;12.60;70.50
15359;DHT22;7779;49.596;11.070;2023-04-24T03:25:55;12.60;70.50
15359;DHT22;7779;49.596;11.070;2023-04-24T03:28:21;12.50;70.40
15359;DHT22;7779;49.596;11.070;2023-04-24T03:30:53;12.50;70.30
15359;DHT22;7779;49.596;11.070;2023-04-24T03:33:19;12.50;70.30
15359;DHT22;7779;49.596;11.070;2023-04-24T03:35:58;12.50;70.30
15359;DHT22;7779;49.596;11.070;2023-04-24T03:38:24;12.50;70.20
15359;DHT22;7779;49.596;11.070;2023-04-24T03:41:00;12.50;70.20
15359;DHT22;7779;49.596;11.070;2023-04-24T03:43:39;12.50;70.20
15359;DHT22;7779;49.596;11.070;2023-04-24T03:46:06;12.40;70.00
15359;DHT22;7779;49.596;11.070;2023-04-24T03:48:36;12.40;70.10
15359;DHT22;7779;49.596;11.070;2023-04-24T03:51:02;12.40;70.10
15359;DHT22;7779;49.596;11.070;2023-04-24T03:53:32;12.40;70.10
15359;DHT22;7779;49.596;11.070;2023-04-24T03:55:58;12.30;70.10
15359;DHT22;7779;49.596;11.070;2023-04-24T03:58:24;12.30;70.10
15359;DHT22;7779;49.596;11.070;2023-04-24T04:00:51;12.30;70.10
15359;DHT22;7779;49.596;11.070;2023-04-24T04:03:37;12.30;70.10
15359;DHT22;7779;49.596;11.070;2023-04-24T04:06:03;12.30;70.10
15359;DHT22;7779;49.596;11.070;2023-04-24T04:08:29;12.20;70.10
15359;DHT22;7779;49.596;11.070;2023-04-24T04:10:55;12.20;70.10
15359;DHT22;7779;49.596;11.070;2023-04-24T04:13:22;12.20;70.20
15359;DHT22;7779;49.596;11.070;2023-04-24T04:15:48;12.20;70.20
15359;DHT22;7779;49.596;11.070;2023-04-24T04:18:14;12.10;70.20
15359;DHT22;7779;49.596;11.070;2023-04-24T04:20:40;12.10;70.90
15359;DHT22;7779;49.596;11.070;2023-04-24T04:23:06;12.10;70.30
15359;DHT22;7779;49.596;11.070;2023-04-24T04:25:42;12.10;70.40
15359;DHT22;7779;49.596;11.070;2023-04-24T04:28:08;12.10;70.30
15359;DHT22;7779;49.596;11.070;2023-04-24T04:30:33;12.00;70.30
15359;DHT22;7779;49.596;11.070;2023-04-24T04:33:02;12.00;70.40
15359;DHT22;7779;49.596;11.070;2023-04-24T04:35:30;12.00;70.40
15359;DHT22;7779;49.596;11.070;2023-04-24T04:37:55;12.00;70.50
15359;DHT22;7779;49.596;11.070;2023-04-24T04:40:50;12.00;70.60
15359;DHT22;7779;49.596;11.070;2023-04-24T04:43:18;11.90;70.50
15359;DHT22;7779;49.596;11.070;2023-04-24T04:45:50;12.00;70.60
15359;DHT22;7779;49.596;11.070;2023-04-24T04:48:35;11.90;70.50
15359;DHT22;7779;49.596;11.070;2023-04-24T04:51:04;11.90;70.50
15359;DHT22;7779;49.596;11.070;2023-04-24T04:53:30;11.90;70.50
15359;DHT22;7779;49.596;11.070;2023-04-24T04:55:56;11.90;70.60
15359;DHT22;7779;49.596;11.070;2023-04-24T04:58:26;11.90;70.70
15359;DHT22;7779;49.596;11.070;2023-04-24T05:00:56;11.90;70.70
15359;DHT22;7779;49.596;11.070;2023-04-24T05:03:36;11.90;70.90
15359;DHT22;7779;49.596;11.070;2023-04-24T05:06:06;11.90;70.90
15359;DHT22;7779;49.596;11.070;2023-04-24T05:08:35;11.90;71.00
15359;DHT22;7779;49.596;11.070;2023-04-24T05:11:02;11.90;71.10
15359;DHT22;7779;49.596;11.070;2023-04-24T05:13:29;12.00;71.20
15359;DHT22;7779;49.596;11.070;2023-04-24T05:15:55;12.00;71.20
15359;DHT22;7779;49.596;11.070;2023-04-24T05:18:21;12.00;71.20
15359;DHT22;7779;49.596;11.070;2023-04-24T05:20:47;12.00;71.40
15359;DHT22;7779;49.596;11.070;2023-04-24T05:23:13;12.00;71.50
15359;DHT22;7779;49.596;11.070;2023-04-24T05:25:41;12.10;71.70
15359;DHT22;7779;49.596;11.070;2023-04-24T05:28:10;12.10;71.70
15359;DHT22;7779;49.596;11.070;2023-04-24T05:30:37;13.00;72.50
15359;DHT22;7779;49.596;11.070;2023-04-24T05:33:03;12.20;71.80
15359;DHT22;7779;49.596;11.070;2023-04-24T05:35:31;12.20;71.60
15359;DHT22;7779;49.596;11.070;2023-04-24T05:37:57;12.20;71.60
15359;DHT22;7779;49.596;11.070;2023-04-24T05:40:23;12.30;71.70
15359;DHT22;7779;49.596;11.070;2023-04-24T05:42:49;12.30;71.80
15359;DHT22;7779;49.596;11.070;2023-04-24T05:45:14;12.30;71.90
15359;DHT22;7779;49.596;11.070;2023-04-24T05:47:43;12.40;72.00
15359;DHT22;7779;49.596;11.070;2023-04-24T05:50:10;12.40;72.00
15359;DHT22;7779;49.596;11.070;2023-04-24T05:52:37;12.50;72.80
15359;DHT22;7779;49.596;11.070;2023-04-24T05:55:08;12.60;72.10
15359;DHT22;7779;49.596;11.070;2023-04-24T05:57:37;12.60;72.10
15359;DHT22;7779;49.596;11.070;2023-04-24T06:00:04;12.70;72.90
15359;DHT22;7779;49.596;11.070;2023-04-24T06:02:39;12.70;72.10
15359;DHT22;7779;49.596;11.070;2023-04-24T06:05:07;12.80;72.00
15359;DHT22;7779;49.596;11.070;2023-04-24T06:07:33;12.80;71.90
15359;DHT22;7779;49.596;11.070;2023-04-24T06:10:03;12.90;71.90
15359;DHT22;7779;49.596;11.070;2023-04-24T06:12:36;12.90;71.80
15359;DHT22;7779;49.596;11.070;2023-04-24T06:15:07;12.90;71.70
15359;DHT22;7779;49.596;11.070;2023-04-24T06:17:49;13.00;72.40
15359;DHT22;7779;49.596;11.070;2023-04-24T06:20:16;13.10;71.80
15359;DHT22;7779;49.596;11.070;2023-04-24T06:22:42;13.10;71.80
15359;DHT22;7779;49.596;11.070;2023-04-24T06:25:09;13.10;71.60
15359;DHT22;7779;49.596;11.070;2023-04-24T06:27:35;13.20;71.70
15359;DHT22;7779;49.596;11.070;2023-04-24T06:30:01;13.20;71.60
15359;DHT22;7779;49.596;11.070;2023-04-24T06:32:27;13.30;71.60
15359;DHT22;7779;49.596;11.070;2023-04-24T06:34:53;13.30;71.40
15359;DHT22;7779;49.596;11.070;2023-04-24T06:37:19;13.30;71.30
15359;DHT22;7779;49.596;11.070;2023-04-24T06:39:46;13.30;71.20
15359;DHT22;7779;49.596;11.070;2023-04-24T06:42:12;13.40;71.00
15359;DHT22;7779;49.596;11.070;2023-04-24T06:44:37;13.40;70.90
15359;DHT22;7779;49.596;11.070;2023-04-24T06:47:09;13.40;70.70
15359;DHT22;7779;49.596;11.070;2023-04-24T06:49:36;13.40;70.80
15359;DHT22;7779;49.596;11.070;2023-04-24T06:52:03;13.40;70.50
15359;DHT22;7779;49.596;11.070;2023-04-24T06:54:29;13.40;70.50
15359;DHT22;7779;49.596;11.070;2023-04-24T06:56:56;13.40;70.60
15359;DHT22;7779;49.596;11.070;2023-04-24T06:59:24;13.40;70.50
15359;DHT22;7779;49.596;11.070;2023-04-24T07:01:50;13.40;70.60
15359;DHT22;7779;49.596;11.070;2023-04-24T07:04:19;13.40;70.70
15359;DHT22;7779;49.596;11.070;2023-04-24T07:06:45;13.40;70.80
15359;DHT22;7779;49.596;11.070;2023-04-24T07:09:11;13.50;71.00
15359;DHT22;7779;49.596;11.070;2023-04-24T07:11:39;13.50;70.90
15359;DHT22;7779;49.596;11.070;2023-04-24T07:14:06;13.60;70.80
15359;DHT22;7779;49.596;11.070;2023-04-24T07:16:32;13.60;70.60
15359;DHT22;7779;49.596;11.070;2023-04-24T07:18:58;13.70;70.50
15359;DHT22;7779;49.596;11.070;2023-04-24T07:21:23;13.70;70.50
15359;DHT22;7779;49.596;11.070;2023-04-24T07:23:51;13.70;70.00
15359;DHT22;7779;49.596;11.070;2023-04-24T07:26:17;13.80;69.90
15359;DHT22;7779;49.596;11.070;2023-04-24T07:28:43;13.90;69.80
15359;DHT22;7779;49.596;11.070;2023-04-24T07:31:10;13.90;69.00
15359;DHT22;7779;49.596;11.070;2023-04-24T07:33:37;14.00;69.40
15359;DHT22;7779;49.596;11.070;2023-04-24T07:36:03;14.10;69.30
15359;DHT22;7779;49.596;11.070;2023-04-24T07:38:30;14.20;69.00
15359;DHT22;7779;49.596;11.070;2023-04-24T07:40:56;15.10;69.60
15359;DHT22;7779;49.596;11.070;2023-04-24T07:43:22;14.30;68.50
15359;DHT22;7779;49.596;11.070;2023-04-24T07:45:49;14.40;68.10
15359;DHT22;7779;49.596;11.070;2023-04-24T07:48:16;14.50;67.50
15359;DHT22;7779;49.596;11.070;2023-04-24T07:50:46;14.50;67.00
15359;DHT22;7779;49.596;11.070;2023-04-24T07:53:12;14.50;66.70
15359;DHT22;7779;49.596;11.070;2023-04-24T07:55:37;14.50;66.50
15359;DHT22;7779;49.596;11.070;2023-04-24T07:58:03;14.60;66.30
15359;DHT22;7779;49.596;11.070;2023-04-24T08:00:29;14.60;66.50
15359;DHT22;7779;49.596;11.070;2023-04-24T08:02:55;14.60;65.80
15359;DHT22;7779;49.596;11.070;2023-04-24T08:05:21;14.60;65.60
15359;DHT22;7779;49.596;11.070;2023-04-24T08:07:46;14.70;65.80
15359;DHT22;7779;49.596;11.070;2023-04-24T08:10:14;14.70;65.80
15359;DHT22;7779;49.596;11.070;2023-04-24T08:12:41;14.80;65.60
15359;DHT22;7779;49.596;11.070;2023-04-24T08:15:07;14.80;65.70
15359;DHT22;7779;49.596;11.070;2023-04-24T08:17:34;15.00;65.90
15359;DHT22;7779;49.596;11.070;2023-04-24T08:20:01;15.10;65.80
15359;DHT22;7779;49.596;11.070;2023-04-24T08:22:30;15.20;65.50
15359;DHT22;7779;49.596;11.070;2023-04-24T08:24:58;15.30;65.30
15359;DHT22;7779;49.596;11.070;2023-04-24T08:27:26;15.40;65.00
15359;DHT22;7779;49.596;11.070;2023-04-24T08:29:53;15.50;64.70
15359;DHT22;7779;49.596;11.070;2023-04-24T08:32:20;15.60;64.00
15359;DHT22;7779;49.596;11.070;2023-04-24T08:34:45;15.70;63.80
15359;DHT22;7779;49.596;11.070;2023-04-24T08:37:11;15.80;63.50
15359;DHT22;7779;49.596;11.070;2023-04-24T08:39:37;15.80;63.10
15359;DHT22;7779;49.596;11.070;2023-04-24T08:42:04;15.80;62.90
15359;DHT22;7779;49.596;11.070;2023-04-24T08:44:34;15.90;62.40
15359;DHT22;7779;49.596;11.070;2023-04-24T08:47:04;15.90;62.20
15359;DHT22;7779;49.596;11.070;2023-04-24T08:49:31;15.90;61.40
15359;DHT22;7779;49.596;11.070;2023-04-24T08:51:57;15.80;61.50
15359;DHT22;7779;49.596;11.070;2023-04-24T08:54:23;15.80;61.60
15359;DHT22;7779;49.596;11.070;2023-04-24T08:56:52;15.80;61.70
15359;DHT22;7779;49.596;11.070;2023-04-24T08:59:21;15.90;60.00
15359;DHT22;7779;49.596;11.070;2023-04-24T09:01:48;15.90;61.70
15359;DHT22;7779;49.596;11.070;2023-04-24T09:04:17;15.90;61.60
15359;DHT22;7779;49.596;11.070;2023-04-24T09:06:48;15.90;61.20
15359;DHT22;7779;49.596;11.070;2023-04-24T09:09:16;16.00;61.20
15359;DHT22;7779;49.596;11.070;2023-04-24T09:11:43;16.00;60.90
15359;DHT22;7779;49.596;11.070;2023-04-24T09:14:10;16.10;61.20
15359;DHT22;7779;49.596;11.070;2023-04-24T09:16:36;16.20;61.20
15359;DHT22;7779;49.596;11.070;2023-04-24T09:19:02;16.20;60.80
15359;DHT22;7779;49.596;11.070;2023-04-24T09:21:33;16.30;60.70
15359;DHT22;7779;49.596;11.070;2023-04-24T09:24:02;16.30;60.20
15359;DHT22;7779;49.596;11.070;2023-04-24T09:26:35;16.40;60.50
15359;DHT22;7779;49.596;11.070;2023-04-24T09:29:02;16.50;60.10
15359;DHT22;7779;49.596;11.070;2023-04-24T09:31:29;16.60;60.50
15359;DHT22;7779;49.596;11.070;2023-04-24T09:34:02;16.60;60.20
15359;DHT22;7779;49.596;11.070;2023-04-24T09:36:38;16.70;59.70
15359;DHT22;7779;49.596;11.070;2023-04-24T09:39:08;16.70;58.90
15359;DHT22;7779;49.596;11.070;2023-04-24T09:41:53;16.70;58.80
15359;DHT22;7779;49.596;11.070;2023-04-24T09:44:22;16.70;57.60
15359;DHT22;7779;49.596;11.070;2023-04-24T09:46:59;16.60;58.50
15359;DHT22;7779;49.596;11.070;2023-04-24T09:49:30;16.70;58.00
15359;DHT22;7779;49.596;11.070;2023-04-24T09:52:10;16.70;58.90
15359;DHT22;7779;49.596;11.070;2023-04-24T09:54:37;16.70;58.00
15359;DHT22;7779;49.596;11.070;2023-04-24T09:57:04;16.70;58.50
15359;DHT22;7779;49.596;11.070;2023-04-24T09:59:30;16.70;58.10
15359;DHT22;7779;49.596;11.070;2023-04-24T10:01:56;16.70;57.70
15359;DHT22;7779;49.596;11.070;2023-04-24T10:04:28;16.60;57.30
15359;DHT22;7779;49.596;11.070;2023-04-24T10:06:56;16.60;56.90
15359;DHT22;7779;49.596;11.070;2023-04-24T10:09:26;16.50;57.00
15359;DHT22;7779;49.596;11.070;2023-04-24T10:11:53;16.50;57.20
15359;DHT22;7779;49.596;11.070;2023-04-24T10:14:24;16.40;57.20
15359;DHT22;7779;49.596;11.070;2023-04-24T10:16:53;16.50;57.30
15359;DHT22;7779;49.596;11.070;2023-04-24T10:19:25;16.50;57.70
15359;DHT22;7779;49.596;11.070;2023-04-24T10:21:52;16.50;57.70
15359;DHT22;7779;49.596;11.070;2023-04-24T10:24:19;16.60;57.70
15359;DHT22;7779;49.596;11.070;2023-04-24T10:26:48;16.60;57.40
15359;DHT22;7779;49.596;11.070;2023-04-24T10:29:16;16.70;57.20
15359;DHT22;7779;49.596;11.070;2023-04-24T10:31:43;16.60;56.50
15359;DHT22;7779;49.596;11.070;2023-04-24T10:34:11;16.60;56.30
15359;DHT22;7779;49.596;11.070;2023-04-24T10:36:41;16.50;56.30
15359;DHT22;7779;49.596;11.070;2023-04-24T10:39:12;16.40;56.30
15359;DHT22;7779;49.596;11.070;2023-04-24T10:41:40;16.40;56.60
15359;DHT22;7779;49.596;11.070;2023-04-24T10:46:43;16.30;56.50
15359;DHT22;7779;49.596;11.070;2023-04-24T10:49:10;16.30;56.60
15359;DHT22;7779;49.596;11.070;2023-04-24T10:51:52;16.30;56.60
15359;DHT22;7779;49.596;11.070;2023-04-24T10:54:45;16.30;55.90
15359;DHT22;7779;49.596;11.070;2023-04-24T10:59:47;16.20;55.20
15359;DHT22;7779;49.596;11.070;2023-04-24T11:02:17;16.20;55.80
15359;DHT22;7779;49.596;11.070;2023-04-24T11:04:44;16.20;55.90
15359;DHT22;7779;49.596;11.070;2023-04-24T11:07:11;16.20;56.10
15359;DHT22;7779;49.596;11.070;2023-04-24T11:09:37;16.30;56.20
15359;DHT22;7779;49.596;11.070;2023-04-24T11:12:08;16.30;55.90
15359;DHT22;7779;49.596;11.070;2023-04-24T11:20:16;16.30;55.40
15359;DHT22;7779;49.596;11.070;2023-04-24T11:22:42;16.40;54.90
15359;DHT22;7779;49.596;11.070;2023-04-24T11:25:08;16.40;55.80
15359;DHT22;7779;49.596;11.070;2023-04-24T11:27:41;16.50;56.00
15359;DHT22;7779;49.596;11.070;2023-04-24T11:30:10;16.60;55.40
15359;DHT22;7779;49.596;11.070;2023-04-24T11:32:38;16.70;56.00
15359;DHT22;7779;49.596;11.070;2023-04-24T11:37:47;16.90;55.80
15359;DHT22;7779;49.596;11.070;2023-04-24T11:40:18;16.90;55.30
15359;DHT22;7779;49.596;11.070;2023-04-24T11:42:52;17.00;55.00
15359;DHT22;7779;49.596;11.070;2023-04-24T11:45:28;17.00;55.20
15359;DHT22;7779;49.596;11.070;2023-04-24T11:47:56;17.00;53.30
15359;DHT22;7779;49.596;11.070;2023-04-24T11:50:23;16.90;54.00
15359;DHT22;7779;49.596;11.070;2023-04-24T11:52:51;16.90;53.60
15359;DHT22;7779;49.596;11.070;2023-04-24T11:57:45;16.70;53.10
15359;DHT22;7779;49.596;11.070;2023-04-24T12:00:22;16.50;52.70
15359;DHT22;7779;49.596;11.070;2023-04-24T12:03:11;16.50;52.40
15359;DHT22;7779;49.596;11.070;2023-04-24T12:05:37;16.30;52.10
15359;DHT22;7779;49.596;11.070;2023-04-24T12:08:04;16.30;53.10
15359;DHT22;7779;49.596;11.070;2023-04-24T12:10:32;16.20;53.20
15359;DHT22;7779;49.596;11.070;2023-04-24T12:12:59;16.20;53.40
15359;DHT22;7779;49.596;11.070;2023-04-24T12:15:26;16.20;53.70
15359;DHT22;7779;49.596;11.070;2023-04-24T12:17:54;16.20;53.90
15359;DHT22;7779;49.596;11.070;2023-04-24T12:20:26;16.30;54.30
15359;DHT22;7779;49.596;11.070;2023-04-24T12:23:00;16.40;54.50
15359;DHT22;7779;49.596;11.070;2023-04-24T12:25:28;16.50;54.60
15359;DHT22;7779;49.596;11.070;2023-04-24T12:28:08;16.60;54.80
15359;DHT22;7779;49.596;11.070;2023-04-24T12:30:44;16.70;54.30
15359;DHT22;7779;49.596;11.070;2023-04-24T12:33:23;16.80;54.50
15359;DHT22;7779;49.596;11.070;2023-04-24T12:35:51;17.00;54.10
15359;DHT22;7779;49.596;11.070;2023-04-24T12:38:25;17.00;53.50
15359;DHT22;7779;49.596;11.070;2023-04-24T12:41:05;17.00;53.10
15359;DHT22;7779;49.596;11.070;2023-04-24T12:43:32;17.00;51.80
15359;DHT22;7779;49.596;11.070;2023-04-24T12:45:58;16.90;53.00
15359;DHT22;7779;49.596;11.070;2023-04-24T12:48:27;16.90;52.90
15359;DHT22;7779;49.596;11.070;2023-04-24T12:50:54;16.90;53.00
15359;DHT22;7779;49.596;11.070;2023-04-24T12:53:22;16.80;52.90
15359;DHT22;7779;49.596;11.070;2023-04-24T12:55:47;16.70;52.60
15359;DHT22;7779;49.596;11.070;2023-04-24T12:58:22;16.70;52.60
15359;DHT22;7779;49.596;11.070;2023-04-24T13:00:48;16.60;52.50
15359;DHT22;7779;49.596;11.070;2023-04-24T13:03:14;16.50;52.50
15359;DHT22;7779;49.596;11.070;2023-04-24T13:05:41;16.40;52.60
15359;DHT22;7779;49.596;11.070;2023-04-24T13:08:08;16.30;52.50
15359;DHT22;7779;49.596;11.070;2023-04-24T13:10:34;16.30;52.70
15359;DHT22;7779;49.596;11.070;2023-04-24T13:13:00;16.20;52.60
15359;DHT22;7779;49.596;11.070;2023-04-24T13:15:26;16.10;52.60
15359;DHT22;7779;49.596;11.070;2023-04-24T13:17:52;16.10;52.80
15359;DHT22;7779;49.596;11.070;2023-04-24T13:20:17;16.10;53.20
15359;DHT22;7779;49.596;11.070;2023-04-24T13:22:43;16.10;53.10
15359;DHT22;7779;49.596;11.070;2023-04-24T13:25:09;16.10;53.20
15359;DHT22;7779;49.596;11.070;2023-04-24T13:27:35;16.10;53.00
15359;DHT22;7779;49.596;11.070;2023-04-24T13:30:03;16.10;52.80
15359;DHT22;7779;49.596;11.070;2023-04-24T13:32:29;16.00;52.50
15359;DHT22;7779;49.596;11.070;2023-04-24T13:34:56;16.00;52.50
15359;DHT22;7779;49.596;11.070;2023-04-24T13:37:22;15.90;52.50
15359;DHT22;7779;49.596;11.070;2023-04-24T13:39:48;15.90;52.50
15359;DHT22;7779;49.596;11.070;2023-04-24T13:42:14;15.80;52.00
15359;DHT22;7779;49.596;11.070;2023-04-24T13:44:40;15.80;52.10
15359;DHT22;7779;49.596;11.070;2023-04-24T13:47:05;15.70;52.10
15359;DHT22;7779;49.596;11.070;2023-04-24T13:49:31;15.60;52.00
15359;DHT22;7779;49.596;11.070;2023-04-24T13:51:57;15.60;52.30
15359;DHT22;7779;49.596;11.070;2023-04-24T13:54:23;15.60;52.60
15359;DHT22;7779;49.596;11.070;2023-04-24T13:56:51;15.60;52.90
15359;DHT22;7779;49.596;11.070;2023-04-24T13:59:18;15.70;53.40
15359;DHT22;7779;49.596;11.070;2023-04-24T14:01:45;15.80;53.80
15359;DHT22;7779;49.596;11.070;2023-04-24T14:04:11;15.90;53.90
15359;DHT22;7779;49.596;11.070;2023-04-24T14:06:37;16.00;53.80
15359;DHT22;7779;49.596;11.070;2023-04-24T14:09:03;16.10;53.40
15359;DHT22;7779;49.596;11.070;2023-04-24T14:11:28;16.20;52.90
15359;DHT22;7779;49.596;11.070;2023-04-24T14:13:55;16.30;52.70
15359;DHT22;7779;49.596;11.070;2023-04-24T14:16:24;16.30;52.50
15359;DHT22;7779;49.596;11.070;2023-04-24T14:18:50;16.40;52.60
15359;DHT22;7779;49.596;11.070;2023-04-24T14:21:16;16.40;52.50
15359;DHT22;7779;49.596;11.070;2023-04-24T14:23:41;16.50;52.50
15359;DHT22;7779;49.596;11.070;2023-04-24T14:26:07;16.50;52.60
15359;DHT22;7779;49.596;11.070;2023-04-24T14:28:33;16.60;52.70
15359;DHT22;7779;49.596;11.070;2023-04-24T14:30:59;16.60;52.70
15359;DHT22;7779;49.596;11.070;2023-04-24T14:33:25;16.60;52.60
15359;DHT22;7779;49.596;11.070;2023-04-24T14:35:51;16.70;52.50
15359;DHT22;7779;49.596;11.070;2023-04-24T14:38:16;16.70;52.20
15359;DHT22;7779;49.596;11.070;2023-04-24T14:40:42;16.70;50.90
15359;DHT22;7779;49.596;11.070;2023-04-24T14:43:08;16.60;51.80
15359;DHT22;7779;49.596;11.070;2023-04-24T14:45:33;16.60;51.80
15359;DHT22;7779;49.596;11.070;2023-04-24T14:48:00;16.50;51.60
15359;DHT22;7779;49.596;11.070;2023-04-24T14:50:25;16.40;51.40
15359;DHT22;7779;49.596;11.070;2023-04-24T14:52:54;16.30;51.30
15359;DHT22;7779;49.596;11.070;2023-04-24T14:55:23;16.20;51.30
15359;DHT22;7779;49.596;11.070;2023-04-24T14:57:49;16.10;51.50
15359;DHT22;7779;49.596;11.070;2023-04-24T15:00:15;16.10;51.60
15359;DHT22;7779;49.596;11.070;2023-04-24T15:02:42;16.00;51.70
15359;DHT22;7779;49.596;11.070;2023-04-24T15:05:10;15.90;51.60
15359;DHT22;7779;49.596;11.070;2023-04-24T15:07:36;15.90;51.70
15359;DHT22;7779;49.596;11.070;2023-04-24T15:10:03;15.90;51.80
15359;DHT22;7779;49.596;11.070;2023-04-24T15:12:29;15.90;52.00
15359;DHT22;7779;49.596;11.070;2023-04-24T15:14:57;16.00;52.20
15359;DHT22;7779;49.596;11.070;2023-04-24T15:17:23;16.00;52.00
15359;DHT22;7779;49.596;11.070;2023-04-24T15:19:48;16.00;52.00
15359;DHT22;7779;49.596;11.070;2023-04-24T15:22:14;16.10;52.00
15359;DHT22;7779;49.596;11.070;2023-04-24T15:24:40;16.10;51.90
15359;DHT22;7779;49.596;11.070;2023-04-24T15:27:09;16.10;51.80
15359;DHT22;7779;49.596;11.070;2023-04-24T15:29:35;16.10;51.70
15359;DHT22;7779;49.596;11.070;2023-04-24T15:32:01;16.20;51.90
15359;DHT22;7779;49.596;11.070;2023-04-24T15:34:27;16.10;51.70
15359;DHT22;7779;49.596;11.070;2023-04-24T15:36:53;16.20;51.60
15359;DHT22;7779;49.596;11.070;2023-04-24T15:39:22;16.10;51.30
15359;DHT22;7779;49.596;11.070;2023-04-24T15:41:49;16.10;51.20
15359;DHT22;7779;49.596;11.070;2023-04-24T15:44:15;16.00;51.10
15359;DHT22;7779;49.596;11.070;2023-04-24T15:46:41;15.90;50.90
15359;DHT22;7779;49.596;11.070;2023-04-24T15:49:07;15.80;50.50